MSC Annamaria — H3HN — position and weather

sailwx.info

Track history (hours):
 
Tides and Currents Weather Stations Pressure Air Temp Water Temp Dewpoint Dewpoint Depression Visibility Wind Speed Wind Dir Waves Ship Positions

MSC Annamaria

Last reported at 2014-Oct-22 05:33 UTC. Time now 2014-Oct-23 04:00 UTC.
Position N 34°34' E 033°28'.

Length 188 m; draft 7.7 m.

Type: Ship (hazmat cat A). MMSI: 353852000.

Date/timePositionNaut miles runAvg speedWind from/ knotsBaromVisibWave heightAir tempDewpointWater temp
2014-Oct-22 05:33N 34°34' E 033°28'1312.9
2014-Oct-22 04:34N 34°37' E 033°13'10 9.9
2014-Oct-22 03:34N 34°39' E 033°01'0 0.1
2014-Oct-22 02:32N 34°39' E 033°01'0 0.0
2014-Oct-22 01:33N 34°39' E 033°01'0 0.0
2014-Oct-22 00:31N 34°39' E 033°01'0 0.0
2014-Oct-21 23:33N 34°39' E 033°01'0 0.0
2014-Oct-21 22:34N 34°39' E 033°01'0 0.0
2014-Oct-21 21:32N 34°39' E 033°01'0 0.0
2014-Oct-21 20:34N 34°39' E 033°01'0 0.0
2014-Oct-21 19:32N 34°39' E 033°01'0 0.0
2014-Oct-21 18:32N 34°39' E 033°01'0 0.0
2014-Oct-21 17:34N 34°39' E 033°01'0 0.0
2014-Oct-21 16:32N 34°39' E 033°01'0 0.0
2014-Oct-21 15:31N 34°39' E 033°01'0 0.0
2014-Oct-21 14:33N 34°39' E 033°01'0 0.0
2014-Oct-21 13:32N 34°39' E 033°01'0 0.0
2014-Oct-21 12:32N 34°39' E 033°01'0 0.0
2014-Oct-21 11:33N 34°39' E 033°01'0 0.0
2014-Oct-21 10:32N 34°39' E 033°01'0 0.0
2014-Oct-21 09:32N 34°39' E 033°01'0 0.0
2014-Oct-21 08:32N 34°39' E 033°01'2 2.0
2014-Oct-21 07:33N 34°39' E 033°03'8 7.5
2014-Oct-21 06:33N 34°32' E 033°00'1111.3
2014-Oct-21 05:33N 34°34' E 032°47'1312.7
2014-Oct-21 04:33N 34°37' E 032°32'31913.1
2014-Oct-20 04:12N 36°08' E 026°17'912.0
2014-Oct-20 03:30N 36°08' E 026°07'1212.1
2014-Oct-20 02:33N 36°09' E 025°52'1312.4
2014-Oct-20 01:31N 36°08' E 025°37'1212.2
2014-Oct-20 00:33N 36°08' E 025°22'1212.2
2014-Oct-19 23:33N 36°11' E 025°07'1312.6
2014-Oct-19 22:33N 36°17' E 024°54'1212.6
2014-Oct-19 21:33N 36°23' E 024°40'1212.3
2014-Oct-19 20:33N 36°29' E 024°26'1211.8
2014-Oct-19 19:33N 36°35' E 024°14'1512.7
2014-Oct-19 18:22N 36°49' E 024°07'1113.2
2014-Oct-19 17:33N 36°59' E 024°02'4113.0
2014-Oct-19 14:25N 37°37' E 023°43'1113.2
2014-Oct-19 13:33N 37°48' E 023°38'10 9.5
2014-Oct-19 12:33N 37°57' E 023°35'0 0.2
2014-Oct-19 11:34N 37°57' E 023°35'0 0.0
2014-Oct-19 10:33N 37°57' E 023°35'0 0.0
2014-Oct-19 09:32N 37°57' E 023°35'0 0.0
2014-Oct-19 08:32N 37°57' E 023°35'0 0.0
2014-Oct-19 07:31N 37°57' E 023°35'0 0.0
2014-Oct-19 06:29N 37°57' E 023°35'0 0.0
2014-Oct-19 05:33N 37°57' E 023°35'0 0.0
2014-Oct-19 04:32N 37°57' E 023°35'0 0.0
2014-Oct-19 03:33N 37°57' E 023°35'0 0.0
2014-Oct-19 02:34N 37°57' E 023°35'0 0.0
2014-Oct-19 01:32N 37°57' E 023°35'0 0.0
2014-Oct-19 00:32N 37°57' E 023°35'0 0.0
2014-Oct-18 23:28N 37°57' E 023°35'0 0.0
2014-Oct-18 22:29N 37°57' E 023°35'0 0.0
2014-Oct-18 21:33N 37°57' E 023°35'1 0.5
2014-Oct-18 20:34N 37°57' E 023°35'3 2.7
2014-Oct-18 19:34N 37°55' E 023°37'1110.8
2014-Oct-18 18:34N 37°45' E 023°42'1010.1
2014-Oct-18 17:33N 37°34' E 023°42'1 1.0
2014-Oct-18 16:32N 37°34' E 023°41'1 0.9
2014-Oct-18 15:26N 37°34' E 023°42'1 1.1
2014-Oct-18 14:33N 37°35' E 023°43'4 4.4
2014-Oct-18 13:33N 37°39' E 023°46'5 5.2
2014-Oct-18 12:33N 37°38' E 023°52'2411.6
2014-Oct-18 10:29N 37°46' E 024°21'1212.7
2014-Oct-18 09:32N 37°54' E 024°32'107 2.7
2014-Oct-16 17:10N 39°39' E 024°01'813.5
2014-Oct-16 16:33N 39°35' E 024°10'1912.9
2014-Oct-16 15:06N 39°28' E 024°33'913.3
2014-Oct-16 14:27N 39°23' E 024°42'1413.7
2014-Oct-16 13:27N 39°17' E 024°58'56 1.3
2014-Oct-14 18:29N 38°31' E 025°40'1713.1
2014-Oct-14 17:11N 38°22' E 025°22'813.0
2014-Oct-14 16:33N 38°18' E 025°13'3812.6
2014-Oct-14 13:32N 37°55' E 024°34'2713.2
2014-Oct-14 11:28N 37°36' E 024°10'1213.0
2014-Oct-14 10:33N 37°25' E 024°03'  
Track history (hours):
 
Tides and Currents Weather Stations Pressure Air Temp Water Temp Dewpoint Dewpoint Depression Visibility Wind Speed Wind Dir Waves Ship Positions

MSC Annamaria

Last reported at 2014-Oct-22 05:33 UTC. Time now 2014-Oct-23 04:00 UTC.
Position N 34°34' E 033°28'.

Length 188 m; draft 7.7 m.

Type: Ship (hazmat cat A). MMSI: 353852000.

Date/timePositionNaut miles runAvg speedWind from/ knotsBaromVisibWave heightAir tempDewpointWater temp
2014-Oct-22 05:33N 34°34' E 033°28'1312.9
2014-Oct-22 04:34N 34°37' E 033°13'10 9.9
2014-Oct-22 03:34N 34°39' E 033°01'0 0.1
2014-Oct-22 02:32N 34°39' E 033°01'0 0.0
2014-Oct-22 01:33N 34°39' E 033°01'0 0.0
2014-Oct-22 00:31N 34°39' E 033°01'0 0.0
2014-Oct-21 23:33N 34°39' E 033°01'0 0.0
2014-Oct-21 22:34N 34°39' E 033°01'0 0.0
2014-Oct-21 21:32N 34°39' E 033°01'0 0.0
2014-Oct-21 20:34N 34°39' E 033°01'0 0.0
2014-Oct-21 19:32N 34°39' E 033°01'0 0.0
2014-Oct-21 18:32N 34°39' E 033°01'0 0.0
2014-Oct-21 17:34N 34°39' E 033°01'0 0.0
2014-Oct-21 16:32N 34°39' E 033°01'0 0.0
2014-Oct-21 15:31N 34°39' E 033°01'0 0.0
2014-Oct-21 14:33N 34°39' E 033°01'0 0.0
2014-Oct-21 13:32N 34°39' E 033°01'0 0.0
2014-Oct-21 12:32N 34°39' E 033°01'0 0.0
2014-Oct-21 11:33N 34°39' E 033°01'0 0.0
2014-Oct-21 10:32N 34°39' E 033°01'0 0.0
2014-Oct-21 09:32N 34°39' E 033°01'0 0.0
2014-Oct-21 08:32N 34°39' E 033°01'2 2.0
2014-Oct-21 07:33N 34°39' E 033°03'8 7.5
2014-Oct-21 06:33N 34°32' E 033°00'1111.3
2014-Oct-21 05:33N 34°34' E 032°47'1312.7
2014-Oct-21 04:33N 34°37' E 032°32'31913.1
2014-Oct-20 04:12N 36°08' E 026°17'912.0
2014-Oct-20 03:30N 36°08' E 026°07'1212.1
2014-Oct-20 02:33N 36°09' E 025°52'1312.4
2014-Oct-20 01:31N 36°08' E 025°37'1212.2
2014-Oct-20 00:33N 36°08' E 025°22'1212.2
2014-Oct-19 23:33N 36°11' E 025°07'1312.6
2014-Oct-19 22:33N 36°17' E 024°54'1212.6
2014-Oct-19 21:33N 36°23' E 024°40'1212.3
2014-Oct-19 20:33N 36°29' E 024°26'1211.8
2014-Oct-19 19:33N 36°35' E 024°14'1512.7
2014-Oct-19 18:22N 36°49' E 024°07'1113.2
2014-Oct-19 17:33N 36°59' E 024°02'4113.0
2014-Oct-19 14:25N 37°37' E 023°43'1113.2
2014-Oct-19 13:33N 37°48' E 023°38'10 9.5
2014-Oct-19 12:33N 37°57' E 023°35'0 0.2
2014-Oct-19 11:34N 37°57' E 023°35'0 0.0
2014-Oct-19 10:33N 37°57' E 023°35'0 0.0
2014-Oct-19 09:32N 37°57' E 023°35'0 0.0
2014-Oct-19 08:32N 37°57' E 023°35'0 0.0
2014-Oct-19 07:31N 37°57' E 023°35'0 0.0
2014-Oct-19 06:29N 37°57' E 023°35'0 0.0
2014-Oct-19 05:33N 37°57' E 023°35'0 0.0
2014-Oct-19 04:32N 37°57' E 023°35'0 0.0
2014-Oct-19 03:33N 37°57' E 023°35'0 0.0
2014-Oct-19 02:34N 37°57' E 023°35'0 0.0
2014-Oct-19 01:32N 37°57' E 023°35'0 0.0
2014-Oct-19 00:32N 37°57' E 023°35'0 0.0
2014-Oct-18 23:28N 37°57' E 023°35'0 0.0
2014-Oct-18 22:29N 37°57' E 023°35'0 0.0
2014-Oct-18 21:33N 37°57' E 023°35'1 0.5
2014-Oct-18 20:34N 37°57' E 023°35'3 2.7
2014-Oct-18 19:34N 37°55' E 023°37'1110.8
2014-Oct-18 18:34N 37°45' E 023°42'1010.1
2014-Oct-18 17:33N 37°34' E 023°42'1 1.0
2014-Oct-18 16:32N 37°34' E 023°41'1 0.9
2014-Oct-18 15:26N 37°34' E 023°42'1 1.1
2014-Oct-18 14:33N 37°35' E 023°43'4 4.4
2014-Oct-18 13:33N 37°39' E 023°46'5 5.2
2014-Oct-18 12:33N 37°38' E 023°52'2411.6
2014-Oct-18 10:29N 37°46' E 024°21'1212.7
2014-Oct-18 09:32N 37°54' E 024°32'107 2.7
2014-Oct-16 17:10N 39°39' E 024°01'813.5
2014-Oct-16 16:33N 39°35' E 024°10'1912.9
2014-Oct-16 15:06N 39°28' E 024°33'913.3
2014-Oct-16 14:27N 39°23' E 024°42'1413.7
2014-Oct-16 13:27N 39°17' E 024°58'56 1.3
2014-Oct-14 18:29N 38°31' E 025°40'1713.1
2014-Oct-14 17:11N 38°22' E 025°22'813.0
2014-Oct-14 16:33N 38°18' E 025°13'3812.6
2014-Oct-14 13:32N 37°55' E 024°34'2713.2
2014-Oct-14 11:28N 37°36' E 024°10'1213.0
2014-Oct-14 10:33N 37°25' E 024°03'  

Dump ship's entire track history